sensor_id;sensor_type;location;lat;lon;timestamp;P1;durP1;ratioP1;P2;durP2;ratioP2
69835;SDS011;57132;51.972;4.450;2022-08-05T00:01:15;1002.97;;;904.72;;
69835;SDS011;57132;51.972;4.450;2022-08-05T00:03:44;931.15;;;840.92;;
69835;SDS011;57132;51.972;4.450;2022-08-05T00:06:10;1000.35;;;904.00;;
69835;SDS011;57132;51.972;4.450;2022-08-05T00:08:36;998.60;;;902.50;;
69835;SDS011;57132;51.972;4.450;2022-08-05T00:11:04;998.08;;;900.97;;
69835;SDS011;57132;51.972;4.450;2022-08-05T00:13:32;995.42;;;899.30;;
69835;SDS011;57132;51.972;4.450;2022-08-05T00:15:58;948.28;;;857.67;;
69835;SDS011;57132;51.972;4.450;2022-08-05T00:18:24;992.88;;;898.17;;
69835;SDS011;57132;51.972;4.450;2022-08-05T00:20:49;988.20;;;894.05;;
69835;SDS011;57132;51.972;4.450;2022-08-05T00:23:15;983.35;;;891.58;;
69835;SDS011;57132;51.972;4.450;2022-08-05T00:25:41;975.53;;;884.40;;
69835;SDS011;57132;51.972;4.450;2022-08-05T00:28:06;969.22;;;880.25;;
69835;SDS011;57132;51.972;4.450;2022-08-05T00:30:32;914.97;;;831.13;;
69835;SDS011;57132;51.972;4.450;2022-08-05T00:32:57;964.15;;;875.90;;
69835;SDS011;57132;51.972;4.450;2022-08-05T00:35:23;927.47;;;844.30;;
69835;SDS011;57132;51.972;4.450;2022-08-05T00:37:48;957.20;;;870.35;;
69835;SDS011;57132;51.972;4.450;2022-08-05T00:40:13;957.70;;;872.53;;
69835;SDS011;57132;51.972;4.450;2022-08-05T00:42:39;974.60;;;887.03;;
69835;SDS011;57132;51.972;4.450;2022-08-05T00:45:05;908.97;;;828.78;;
69835;SDS011;57132;51.972;4.450;2022-08-05T00:47:32;964.78;;;879.08;;
69835;SDS011;57132;51.972;4.450;2022-08-05T00:49:57;961.65;;;876.60;;
69835;SDS011;57132;51.972;4.450;2022-08-05T00:52:23;921.35;;;841.33;;
69835;SDS011;57132;51.972;4.450;2022-08-05T00:54:48;961.03;;;877.15;;
69835;SDS011;57132;51.972;4.450;2022-08-05T00:57:14;908.60;;;830.65;;
69835;SDS011;57132;51.972;4.450;2022-08-05T00:59:39;918.78;;;839.45;;
69835;SDS011;57132;51.972;4.450;2022-08-05T01:02:05;918.95;;;838.35;;
69835;SDS011;57132;51.972;4.450;2022-08-05T01:04:30;961.47;;;877.22;;
69835;SDS011;57132;51.972;4.450;2022-08-05T01:06:56;914.80;;;835.22;;
69835;SDS011;57132;51.972;4.450;2022-08-05T01:09:21;959.35;;;874.53;;
69835;SDS011;57132;51.972;4.450;2022-08-05T01:11:54;963.95;;;879.35;;
69835;SDS011;57132;51.972;4.450;2022-08-05T01:14:25;913.88;;;833.15;;
69835;SDS011;57132;51.972;4.450;2022-08-05T01:17:05;946.08;;;863.45;;
69835;SDS011;57132;51.972;4.450;2022-08-05T01:25:52;943.35;;;860.95;;
69835;SDS011;57132;51.972;4.450;2022-08-05T01:28:36;975.80;;;892.77;;
69835;SDS011;57132;51.972;4.450;2022-08-05T01:34:10;937.97;;;856.83;;
69835;SDS011;57132;51.972;4.450;2022-08-05T01:36:48;905.97;;;828.33;;
69835;SDS011;57132;51.972;4.450;2022-08-05T01:39:19;941.10;;;860.35;;
69835;SDS011;57132;51.972;4.450;2022-08-05T01:41:46;907.15;;;830.10;;
69835;SDS011;57132;51.972;4.450;2022-08-05T01:44:13;913.20;;;834.70;;
69835;SDS011;57132;51.972;4.450;2022-08-05T01:46:39;954.80;;;872.53;;
69835;SDS011;57132;51.972;4.450;2022-08-05T01:49:07;904.83;;;827.17;;
69835;SDS011;57132;51.972;4.450;2022-08-05T01:51:35;955.30;;;872.50;;
69835;SDS011;57132;51.972;4.450;2022-08-05T01:54:02;953.03;;;870.38;;
69835;SDS011;57132;51.972;4.450;2022-08-05T01:56:32;890.45;;;811.05;;
69835;SDS011;57132;51.972;4.450;2022-08-05T01:59:02;947.00;;;857.30;;
69835;SDS011;57132;51.972;4.450;2022-08-05T02:01:30;937.17;;;848.15;;
69835;SDS011;57132;51.972;4.450;2022-08-05T02:03:58;931.65;;;840.33;;
69835;SDS011;57132;51.972;4.450;2022-08-05T02:06:24;922.08;;;832.05;;
69835;SDS011;57132;51.972;4.450;2022-08-05T02:08:50;857.15;;;775.08;;
69835;SDS011;57132;51.972;4.450;2022-08-05T02:11:16;869.20;;;786.22;;
69835;SDS011;57132;51.972;4.450;2022-08-05T02:13:46;847.17;;;764.80;;
69835;SDS011;57132;51.972;4.450;2022-08-05T02:16:33;924.03;;;837.22;;
69835;SDS011;57132;51.972;4.450;2022-08-05T02:24:33;870.03;;;790.20;;
69835;SDS011;57132;51.972;4.450;2022-08-05T02:27:02;965.23;;;878.97;;
69835;SDS011;57132;51.972;4.450;2022-08-05T02:29:30;938.60;;;854.22;;
69835;SDS011;57132;51.972;4.450;2022-08-05T02:31:58;943.38;;;859.90;;
69835;SDS011;57132;51.972;4.450;2022-08-05T02:34:25;890.35;;;812.35;;
69835;SDS011;57132;51.972;4.450;2022-08-05T02:36:55;942.92;;;859.17;;
69835;SDS011;57132;51.972;4.450;2022-08-05T02:39:23;926.25;;;845.35;;
69835;SDS011;57132;51.972;4.450;2022-08-05T02:41:51;938.72;;;857.53;;
69835;SDS011;57132;51.972;4.450;2022-08-05T02:44:18;880.80;;;805.45;;
69835;SDS011;57132;51.972;4.450;2022-08-05T02:46:45;938.97;;;857.78;;
69835;SDS011;57132;51.972;4.450;2022-08-05T02:49:12;940.83;;;860.88;;
69835;SDS011;57132;51.972;4.450;2022-08-05T02:51:39;931.40;;;852.85;;
69835;SDS011;57132;51.972;4.450;2022-08-05T02:54:05;937.95;;;859.20;;
69835;SDS011;57132;51.972;4.450;2022-08-05T02:56:32;886.92;;;813.83;;
69835;SDS011;57132;51.972;4.450;2022-08-05T02:58:58;928.80;;;852.20;;
69835;SDS011;57132;51.972;4.450;2022-08-05T03:01:25;922.92;;;846.97;;
69835;SDS011;57132;51.972;4.450;2022-08-05T03:03:55;926.92;;;851.55;;
69835;SDS011;57132;51.972;4.450;2022-08-05T03:06:24;923.95;;;849.75;;
69835;SDS011;57132;51.972;4.450;2022-08-05T03:08:51;882.53;;;811.65;;
69835;SDS011;57132;51.972;4.450;2022-08-05T03:11:24;880.28;;;810.58;;
69835;SDS011;57132;51.972;4.450;2022-08-05T03:13:51;916.92;;;845.35;;
69835;SDS011;57132;51.972;4.450;2022-08-05T03:16:17;867.83;;;800.00;;
69835;SDS011;57132;51.972;4.450;2022-08-05T03:18:43;879.63;;;810.53;;
69835;SDS011;57132;51.972;4.450;2022-08-05T03:21:09;871.13;;;803.53;;
69835;SDS011;57132;51.972;4.450;2022-08-05T03:23:35;905.10;;;835.22;;
69835;SDS011;57132;51.972;4.450;2022-08-05T03:26:03;910.28;;;840.17;;
69835;SDS011;57132;51.972;4.450;2022-08-05T03:28:29;915.40;;;846.03;;
69835;SDS011;57132;51.972;4.450;2022-08-05T03:30:56;902.03;;;833.13;;
69835;SDS011;57132;51.972;4.450;2022-08-05T03:33:23;905.60;;;836.63;;
69835;SDS011;57132;51.972;4.450;2022-08-05T03:35:49;876.42;;;810.10;;
69835;SDS011;57132;51.972;4.450;2022-08-05T03:38:15;902.17;;;833.83;;
69835;SDS011;57132;51.972;4.450;2022-08-05T03:40:45;873.13;;;806.45;;
69835;SDS011;57132;51.972;4.450;2022-08-05T03:43:10;913.35;;;843.53;;
69835;SDS011;57132;51.972;4.450;2022-08-05T03:45:36;910.40;;;839.90;;
69835;SDS011;57132;51.972;4.450;2022-08-05T03:48:02;907.08;;;836.58;;
69835;SDS011;57132;51.972;4.450;2022-08-05T03:50:32;912.72;;;843.00;;
69835;SDS011;57132;51.972;4.450;2022-08-05T03:53:13;863.88;;;796.78;;
69835;SDS011;57132;51.972;4.450;2022-08-05T03:55:49;913.13;;;842.65;;
69835;SDS011;57132;51.972;4.450;2022-08-05T03:58:21;910.92;;;840.88;;
69835;SDS011;57132;51.972;4.450;2022-08-05T04:00:50;863.35;;;796.70;;
69835;SDS011;57132;51.972;4.450;2022-08-05T04:03:17;912.22;;;842.25;;
69835;SDS011;57132;51.972;4.450;2022-08-05T04:05:44;863.17;;;796.67;;
69835;SDS011;57132;51.972;4.450;2022-08-05T04:08:09;896.78;;;827.63;;
69835;SDS011;57132;51.972;4.450;2022-08-05T04:10:36;910.67;;;839.60;;
69835;SDS011;57132;51.972;4.450;2022-08-05T04:13:02;855.38;;;790.10;;
69835;SDS011;57132;51.972;4.450;2022-08-05T04:15:28;860.28;;;795.42;;
69835;SDS011;57132;51.972;4.450;2022-08-05T04:17:54;898.50;;;831.55;;
69835;SDS011;57132;51.972;4.450;2022-08-05T04:20:20;898.53;;;831.60;;
69835;SDS011;57132;51.972;4.450;2022-08-05T04:22:46;899.78;;;832.92;;
69835;SDS011;57132;51.972;4.450;2022-08-05T04:25:12;890.55;;;823.72;;
69835;SDS011;57132;51.972;4.450;2022-08-05T04:27:38;901.20;;;834.35;;
69835;SDS011;57132;51.972;4.450;2022-08-05T04:30:04;892.92;;;827.67;;
69835;SDS011;57132;51.972;4.450;2022-08-05T04:32:30;884.55;;;819.72;;
69835;SDS011;57132;51.972;4.450;2022-08-05T04:34:55;886.75;;;823.15;;
69835;SDS011;57132;51.972;4.450;2022-08-05T04:37:21;884.03;;;819.97;;
69835;SDS011;57132;51.972;4.450;2022-08-05T04:39:46;856.90;;;794.08;;
69835;SDS011;57132;51.972;4.450;2022-08-05T04:42:12;889.13;;;824.72;;
69835;SDS011;57132;51.972;4.450;2022-08-05T04:44:37;850.50;;;788.00;;
69835;SDS011;57132;51.972;4.450;2022-08-05T04:47:03;888.50;;;823.55;;
69835;SDS011;57132;51.972;4.450;2022-08-05T04:49:31;897.08;;;831.17;;
69835;SDS011;57132;51.972;4.450;2022-08-05T04:51:57;854.17;;;790.72;;
69835;SDS011;57132;51.972;4.450;2022-08-05T04:54:22;905.70;;;838.40;;
69835;SDS011;57132;51.972;4.450;2022-08-05T04:56:51;860.53;;;796.65;;
69835;SDS011;57132;51.972;4.450;2022-08-05T04:59:17;918.28;;;848.53;;
69835;SDS011;57132;51.972;4.450;2022-08-05T05:01:44;906.13;;;836.28;;
69835;SDS011;57132;51.972;4.450;2022-08-05T05:04:10;921.47;;;847.97;;
69835;SDS011;57132;51.972;4.450;2022-08-05T05:06:35;890.50;;;810.65;;
69835;SDS011;57132;51.972;4.450;2022-08-05T05:09:01;689.58;;;619.42;;
69835;SDS011;57132;51.972;4.450;2022-08-05T05:11:26;524.70;;;466.45;;
69835;SDS011;57132;51.972;4.450;2022-08-05T05:13:52;1999.90;;;999.90;;
69835;SDS011;57132;51.972;4.450;2022-08-05T05:16:17;1999.90;;;999.90;;
69835;SDS011;57132;51.972;4.450;2022-08-05T05:18:42;1999.90;;;999.90;;
69835;SDS011;57132;51.972;4.450;2022-08-05T05:21:08;1999.90;;;999.90;;
69835;SDS011;57132;51.972;4.450;2022-08-05T05:23:33;1999.90;;;999.90;;
69835;SDS011;57132;51.972;4.450;2022-08-05T05:25:58;1999.90;;;999.90;;
69835;SDS011;57132;51.972;4.450;2022-08-05T05:28:24;1999.90;;;999.90;;
69835;SDS011;57132;51.972;4.450;2022-08-05T05:30:49;1999.90;;;999.90;;
69835;SDS011;57132;51.972;4.450;2022-08-05T05:33:14;1999.90;;;999.90;;
69835;SDS011;57132;51.972;4.450;2022-08-05T05:35:40;1999.90;;;999.90;;
69835;SDS011;57132;51.972;4.450;2022-08-05T05:38:05;1999.90;;;999.90;;
69835;SDS011;57132;51.972;4.450;2022-08-05T05:40:32;1999.90;;;999.90;;
69835;SDS011;57132;51.972;4.450;2022-08-05T05:42:58;1999.90;;;999.90;;
69835;SDS011;57132;51.972;4.450;2022-08-05T05:45:24;1999.90;;;999.90;;
69835;SDS011;57132;51.972;4.450;2022-08-05T05:47:50;1999.90;;;999.90;;
69835;SDS011;57132;51.972;4.450;2022-08-05T05:50:16;1999.90;;;999.90;;
69835;SDS011;57132;51.972;4.450;2022-08-05T05:52:43;1999.90;;;999.90;;
69835;SDS011;57132;51.972;4.450;2022-08-05T05:55:11;1999.90;;;999.90;;
69835;SDS011;57132;51.972;4.450;2022-08-05T05:57:38;1999.90;;;999.90;;
69835;SDS011;57132;51.972;4.450;2022-08-05T06:00:09;1999.90;;;999.90;;
69835;SDS011;57132;51.972;4.450;2022-08-05T06:02:36;1999.90;;;999.90;;
69835;SDS011;57132;51.972;4.450;2022-08-05T06:05:02;1999.90;;;999.90;;
69835;SDS011;57132;51.972;4.450;2022-08-05T06:07:28;1999.90;;;999.90;;
69835;SDS011;57132;51.972;4.450;2022-08-05T06:09:53;1999.90;;;999.90;;
69835;SDS011;57132;51.972;4.450;2022-08-05T06:12:18;1999.90;;;999.90;;
69835;SDS011;57132;51.972;4.450;2022-08-05T06:14:44;1999.90;;;999.90;;
69835;SDS011;57132;51.972;4.450;2022-08-05T06:17:09;1999.90;;;999.90;;
69835;SDS011;57132;51.972;4.450;2022-08-05T06:19:36;1999.90;;;999.90;;
69835;SDS011;57132;51.972;4.450;2022-08-05T06:22:05;1999.90;;;999.90;;
69835;SDS011;57132;51.972;4.450;2022-08-05T06:24:32;1999.90;;;999.90;;
69835;SDS011;57132;51.972;4.450;2022-08-05T06:26:59;1999.90;;;999.90;;
69835;SDS011;57132;51.972;4.450;2022-08-05T06:29:24;1999.90;;;999.90;;
69835;SDS011;57132;51.972;4.450;2022-08-05T06:31:50;1999.90;;;999.90;;
69835;SDS011;57132;51.972;4.450;2022-08-05T06:34:16;1999.90;;;999.90;;
69835;SDS011;57132;51.972;4.450;2022-08-05T06:36:41;1999.90;;;999.90;;
69835;SDS011;57132;51.972;4.450;2022-08-05T06:39:07;1999.90;;;999.90;;
69835;SDS011;57132;51.972;4.450;2022-08-05T06:41:32;1999.90;;;999.90;;
69835;SDS011;57132;51.972;4.450;2022-08-05T06:43:58;1999.90;;;999.90;;
69835;SDS011;57132;51.972;4.450;2022-08-05T06:46:23;1999.90;;;999.90;;
69835;SDS011;57132;51.972;4.450;2022-08-05T06:48:49;1999.90;;;999.90;;
69835;SDS011;57132;51.972;4.450;2022-08-05T06:51:14;1999.90;;;999.90;;
69835;SDS011;57132;51.972;4.450;2022-08-05T06:53:39;1999.90;;;999.90;;
69835;SDS011;57132;51.972;4.450;2022-08-05T06:56:05;1999.90;;;999.90;;
69835;SDS011;57132;51.972;4.450;2022-08-05T06:58:30;1999.90;;;999.90;;
69835;SDS011;57132;51.972;4.450;2022-08-05T07:00:59;1999.90;;;999.90;;
69835;SDS011;57132;51.972;4.450;2022-08-05T07:03:26;1999.90;;;999.90;;
69835;SDS011;57132;51.972;4.450;2022-08-05T07:05:52;1999.90;;;999.90;;
69835;SDS011;57132;51.972;4.450;2022-08-05T07:08:19;1999.90;;;999.90;;
69835;SDS011;57132;51.972;4.450;2022-08-05T07:10:48;1999.90;;;999.90;;
69835;SDS011;57132;51.972;4.450;2022-08-05T07:13:14;1999.90;;;999.90;;
69835;SDS011;57132;51.972;4.450;2022-08-05T07:15:58;1999.90;;;999.90;;
69835;SDS011;57132;51.972;4.450;2022-08-05T07:18:42;1999.90;;;999.90;;
69835;SDS011;57132;51.972;4.450;2022-08-05T07:21:07;1999.90;;;999.90;;
69835;SDS011;57132;51.972;4.450;2022-08-05T07:23:33;1999.90;;;999.90;;
69835;SDS011;57132;51.972;4.450;2022-08-05T07:25:59;1999.90;;;999.90;;
69835;SDS011;57132;51.972;4.450;2022-08-05T07:28:24;1999.90;;;999.90;;
69835;SDS011;57132;51.972;4.450;2022-08-05T07:30:50;1999.90;;;999.90;;
69835;SDS011;57132;51.972;4.450;2022-08-05T07:33:16;1999.90;;;999.90;;
69835;SDS011;57132;51.972;4.450;2022-08-05T07:35:41;1999.90;;;999.90;;
69835;SDS011;57132;51.972;4.450;2022-08-05T07:38:07;1999.90;;;999.90;;
69835;SDS011;57132;51.972;4.450;2022-08-05T07:40:33;1999.90;;;999.90;;
69835;SDS011;57132;51.972;4.450;2022-08-05T07:42:58;1999.90;;;999.90;;
69835;SDS011;57132;51.972;4.450;2022-08-05T07:45:24;1999.90;;;999.90;;
69835;SDS011;57132;51.972;4.450;2022-08-05T07:47:50;1999.90;;;999.90;;
69835;SDS011;57132;51.972;4.450;2022-08-05T07:50:15;1999.90;;;999.90;;
69835;SDS011;57132;51.972;4.450;2022-08-05T07:52:41;1999.90;;;999.90;;
69835;SDS011;57132;51.972;4.450;2022-08-05T07:55:08;1999.90;;;999.90;;
69835;SDS011;57132;51.972;4.450;2022-08-05T07:57:34;1999.90;;;999.90;;
69835;SDS011;57132;51.972;4.450;2022-08-05T08:00:00;1999.90;;;999.90;;
69835;SDS011;57132;51.972;4.450;2022-08-05T08:02:26;1999.90;;;999.90;;
69835;SDS011;57132;51.972;4.450;2022-08-05T08:04:53;1999.90;;;999.90;;
69835;SDS011;57132;51.972;4.450;2022-08-05T08:07:19;1999.90;;;999.90;;
69835;SDS011;57132;51.972;4.450;2022-08-05T08:09:46;1999.90;;;999.90;;
69835;SDS011;57132;51.972;4.450;2022-08-05T08:12:13;1999.90;;;999.90;;
69835;SDS011;57132;51.972;4.450;2022-08-05T08:14:39;1999.90;;;999.90;;
69835;SDS011;57132;51.972;4.450;2022-08-05T08:17:05;1999.90;;;999.90;;
69835;SDS011;57132;51.972;4.450;2022-08-05T08:19:37;1999.90;;;999.90;;
69835;SDS011;57132;51.972;4.450;2022-08-05T08:22:04;1999.90;;;999.90;;
69835;SDS011;57132;51.972;4.450;2022-08-05T08:24:30;1999.90;;;999.90;;
69835;SDS011;57132;51.972;4.450;2022-08-05T08:26:56;1999.90;;;999.90;;
69835;SDS011;57132;51.972;4.450;2022-08-05T08:29:21;1999.90;;;999.90;;
69835;SDS011;57132;51.972;4.450;2022-08-05T08:31:47;1999.90;;;999.90;;
69835;SDS011;57132;51.972;4.450;2022-08-05T08:34:13;1999.90;;;999.90;;
69835;SDS011;57132;51.972;4.450;2022-08-05T08:36:38;1999.90;;;999.90;;
69835;SDS011;57132;51.972;4.450;2022-08-05T08:39:04;1999.90;;;999.90;;
69835;SDS011;57132;51.972;4.450;2022-08-05T08:41:31;1999.90;;;999.90;;
69835;SDS011;57132;51.972;4.450;2022-08-05T08:43:58;1999.90;;;999.90;;
69835;SDS011;57132;51.972;4.450;2022-08-05T08:46:28;1999.90;;;999.90;;
69835;SDS011;57132;51.972;4.450;2022-08-05T08:48:56;1999.90;;;999.90;;
69835;SDS011;57132;51.972;4.450;2022-08-05T08:51:22;1999.90;;;999.90;;
69835;SDS011;57132;51.972;4.450;2022-08-05T08:53:51;1999.90;;;999.90;;
69835;SDS011;57132;51.972;4.450;2022-08-05T08:56:17;1999.90;;;999.90;;
69835;SDS011;57132;51.972;4.450;2022-08-05T08:58:44;1999.90;;;999.90;;
69835;SDS011;57132;51.972;4.450;2022-08-05T09:01:10;1999.90;;;999.90;;
69835;SDS011;57132;51.972;4.450;2022-08-05T09:03:36;1999.90;;;999.90;;
69835;SDS011;57132;51.972;4.450;2022-08-05T09:06:02;1999.90;;;999.90;;
69835;SDS011;57132;51.972;4.450;2022-08-05T09:08:28;1999.90;;;999.90;;
69835;SDS011;57132;51.972;4.450;2022-08-05T09:10:53;1999.90;;;999.90;;
69835;SDS011;57132;51.972;4.450;2022-08-05T09:13:18;1999.90;;;999.90;;
69835;SDS011;57132;51.972;4.450;2022-08-05T09:15:47;1999.90;;;999.90;;
69835;SDS011;57132;51.972;4.450;2022-08-05T09:18:13;1999.90;;;999.90;;
69835;SDS011;57132;51.972;4.450;2022-08-05T09:20:39;1999.90;;;999.90;;
69835;SDS011;57132;51.972;4.450;2022-08-05T09:23:08;1999.90;;;999.90;;
69835;SDS011;57132;51.972;4.450;2022-08-05T09:25:37;1999.90;;;999.90;;
69835;SDS011;57132;51.972;4.450;2022-08-05T09:28:07;1999.90;;;999.90;;
69835;SDS011;57132;51.972;4.450;2022-08-05T09:30:41;1999.90;;;999.90;;
69835;SDS011;57132;51.972;4.450;2022-08-05T09:33:15;1999.90;;;999.90;;
69835;SDS011;57132;51.972;4.450;2022-08-05T09:35:51;1999.90;;;999.90;;
69835;SDS011;57132;51.972;4.450;2022-08-05T09:38:17;1999.90;;;999.90;;
69835;SDS011;57132;51.972;4.450;2022-08-05T09:40:44;1999.90;;;999.90;;
69835;SDS011;57132;51.972;4.450;2022-08-05T09:43:24;1999.90;;;999.90;;
69835;SDS011;57132;51.972;4.450;2022-08-05T09:45:55;1999.90;;;999.90;;
69835;SDS011;57132;51.972;4.450;2022-08-05T09:50:55;1999.90;;;999.90;;
69835;SDS011;57132;51.972;4.450;2022-08-05T09:53:23;1999.90;;;999.90;;
69835;SDS011;57132;51.972;4.450;2022-08-05T09:55:50;1999.90;;;999.90;;
69835;SDS011;57132;51.972;4.450;2022-08-05T09:58:20;1999.90;;;999.90;;
69835;SDS011;57132;51.972;4.450;2022-08-05T10:03:16;1999.90;;;999.90;;
69835;SDS011;57132;51.972;4.450;2022-08-05T10:05:42;1999.90;;;999.90;;
69835;SDS011;57132;51.972;4.450;2022-08-05T10:08:08;1999.90;;;999.90;;
69835;SDS011;57132;51.972;4.450;2022-08-05T10:13:08;1999.90;;;999.90;;
69835;SDS011;57132;51.972;4.450;2022-08-05T10:15:35;1999.90;;;999.90;;
69835;SDS011;57132;51.972;4.450;2022-08-05T10:20:31;1999.90;;;999.90;;
69835;SDS011;57132;51.972;4.450;2022-08-05T10:22:57;1999.90;;;999.90;;
69835;SDS011;57132;51.972;4.450;2022-08-05T10:25:24;1999.90;;;999.90;;
69835;SDS011;57132;51.972;4.450;2022-08-05T10:27:49;1999.90;;;999.90;;
69835;SDS011;57132;51.972;4.450;2022-08-05T10:30:17;1999.90;;;999.90;;
69835;SDS011;57132;51.972;4.450;2022-08-05T10:32:43;1999.90;;;999.90;;
69835;SDS011;57132;51.972;4.450;2022-08-05T10:35:09;1999.90;;;999.90;;
69835;SDS011;57132;51.972;4.450;2022-08-05T10:37:35;1999.90;;;999.90;;
69835;SDS011;57132;51.972;4.450;2022-08-05T10:40:02;1999.90;;;999.90;;
69835;SDS011;57132;51.972;4.450;2022-08-05T10:42:31;1999.90;;;999.90;;
69835;SDS011;57132;51.972;4.450;2022-08-05T10:45:01;1999.90;;;999.90;;
69835;SDS011;57132;51.972;4.450;2022-08-05T10:47:31;1999.90;;;999.90;;
69835;SDS011;57132;51.972;4.450;2022-08-05T10:50:04;1999.90;;;999.90;;
69835;SDS011;57132;51.972;4.450;2022-08-05T10:52:36;1999.90;;;999.90;;
69835;SDS011;57132;51.972;4.450;2022-08-05T10:55:18;1999.90;;;999.90;;
69835;SDS011;57132;51.972;4.450;2022-08-05T10:57:44;1999.90;;;999.90;;
69835;SDS011;57132;51.972;4.450;2022-08-05T11:05:23;1999.90;;;999.90;;
69835;SDS011;57132;51.972;4.450;2022-08-05T11:08:02;1999.90;;;999.90;;
69835;SDS011;57132;51.972;4.450;2022-08-05T11:10:33;1999.90;;;999.90;;
69835;SDS011;57132;51.972;4.450;2022-08-05T11:13:01;1999.90;;;999.90;;
69835;SDS011;57132;51.972;4.450;2022-08-05T11:15:31;1999.90;;;999.90;;
69835;SDS011;57132;51.972;4.450;2022-08-05T11:20:52;1999.90;;;999.90;;
69835;SDS011;57132;51.972;4.450;2022-08-05T11:23:24;1999.90;;;999.90;;
69835;SDS011;57132;51.972;4.450;2022-08-05T11:26:02;1999.90;;;999.90;;
69835;SDS011;57132;51.972;4.450;2022-08-05T11:33:37;1999.90;;;999.90;;
69835;SDS011;57132;51.972;4.450;2022-08-05T11:36:10;1999.90;;;999.90;;
69835;SDS011;57132;51.972;4.450;2022-08-05T11:41:05;1999.90;;;999.90;;
69835;SDS011;57132;51.972;4.450;2022-08-05T11:43:32;1999.90;;;999.90;;
69835;SDS011;57132;51.972;4.450;2022-08-05T11:45:58;1999.90;;;999.90;;
69835;SDS011;57132;51.972;4.450;2022-08-05T11:48:24;1999.90;;;999.90;;
69835;SDS011;57132;51.972;4.450;2022-08-05T11:50:50;1999.90;;;999.90;;
69835;SDS011;57132;51.972;4.450;2022-08-05T11:53:17;1999.90;;;999.90;;
69835;SDS011;57132;51.972;4.450;2022-08-05T11:58:29;1999.90;;;999.90;;
69835;SDS011;57132;51.972;4.450;2022-08-05T12:01:07;1999.90;;;999.90;;
69835;SDS011;57132;51.972;4.450;2022-08-05T12:03:50;1999.90;;;999.90;;
69835;SDS011;57132;51.972;4.450;2022-08-05T12:06:20;1999.90;;;999.90;;
69835;SDS011;57132;51.972;4.450;2022-08-05T12:08:51;1999.90;;;999.90;;
69835;SDS011;57132;51.972;4.450;2022-08-05T12:11:19;1999.90;;;999.90;;
69835;SDS011;57132;51.972;4.450;2022-08-05T12:16:32;1999.90;;;999.90;;
69835;SDS011;57132;51.972;4.450;2022-08-05T12:18:59;1999.90;;;999.90;;
69835;SDS011;57132;51.972;4.450;2022-08-05T12:26:23;1999.90;;;999.90;;
69835;SDS011;57132;51.972;4.450;2022-08-05T12:28:49;1999.90;;;999.90;;
69835;SDS011;57132;51.972;4.450;2022-08-05T12:31:15;1999.90;;;999.90;;
69835;SDS011;57132;51.972;4.450;2022-08-05T12:33:42;1999.90;;;999.90;;
69835;SDS011;57132;51.972;4.450;2022-08-05T12:36:09;1999.90;;;999.90;;
69835;SDS011;57132;51.972;4.450;2022-08-05T12:38:38;1999.90;;;999.90;;
69835;SDS011;57132;51.972;4.450;2022-08-05T12:41:08;1999.90;;;999.90;;
69835;SDS011;57132;51.972;4.450;2022-08-05T12:43:46;1999.90;;;999.90;;
69835;SDS011;57132;51.972;4.450;2022-08-05T12:46:50;1999.90;;;999.90;;
69835;SDS011;57132;51.972;4.450;2022-08-05T12:49:08;1999.90;;;999.90;;
69835;SDS011;57132;51.972;4.450;2022-08-05T12:51:51;1999.90;;;999.90;;
69835;SDS011;57132;51.972;4.450;2022-08-05T12:54:27;1999.90;;;999.90;;
69835;SDS011;57132;51.972;4.450;2022-08-05T12:56:54;1999.90;;;999.90;;
69835;SDS011;57132;51.972;4.450;2022-08-05T12:59:25;1999.90;;;999.90;;
69835;SDS011;57132;51.972;4.450;2022-08-05T13:02:15;1999.90;;;999.90;;
69835;SDS011;57132;51.972;4.450;2022-08-05T13:04:40;1999.90;;;999.90;;
69835;SDS011;57132;51.972;4.450;2022-08-05T13:07:08;1999.90;;;999.90;;
69835;SDS011;57132;51.972;4.450;2022-08-05T13:09:37;1999.90;;;999.90;;
69835;SDS011;57132;51.972;4.450;2022-08-05T13:12:11;1999.90;;;999.90;;
69835;SDS011;57132;51.972;4.450;2022-08-05T13:14:39;1999.90;;;999.90;;
69835;SDS011;57132;51.972;4.450;2022-08-05T13:17:25;1999.90;;;999.90;;
69835;SDS011;57132;51.972;4.450;2022-08-05T13:22:28;1999.90;;;999.90;;
69835;SDS011;57132;51.972;4.450;2022-08-05T13:24:53;1999.90;;;999.90;;
69835;SDS011;57132;51.972;4.450;2022-08-05T13:27:31;1999.90;;;999.90;;
69835;SDS011;57132;51.972;4.450;2022-08-05T13:29:57;1999.90;;;999.90;;
69835;SDS011;57132;51.972;4.450;2022-08-05T13:32:22;1999.90;;;999.90;;
69835;SDS011;57132;51.972;4.450;2022-08-05T13:34:48;1999.90;;;999.90;;
69835;SDS011;57132;51.972;4.450;2022-08-05T13:37:15;1999.90;;;999.90;;
69835;SDS011;57132;51.972;4.450;2022-08-05T13:39:45;1999.90;;;999.90;;
69835;SDS011;57132;51.972;4.450;2022-08-05T13:42:20;1999.90;;;999.90;;
69835;SDS011;57132;51.972;4.450;2022-08-05T13:44:50;1999.90;;;999.90;;
69835;SDS011;57132;51.972;4.450;2022-08-05T13:47:17;1999.90;;;999.90;;
69835;SDS011;57132;51.972;4.450;2022-08-05T13:49:45;1999.90;;;999.90;;
69835;SDS011;57132;51.972;4.450;2022-08-05T13:52:15;1999.90;;;999.90;;
69835;SDS011;57132;51.972;4.450;2022-08-05T13:54:42;1999.90;;;999.90;;
69835;SDS011;57132;51.972;4.450;2022-08-05T13:57:08;1999.90;;;999.90;;
69835;SDS011;57132;51.972;4.450;2022-08-05T13:59:34;1999.90;;;999.90;;
69835;SDS011;57132;51.972;4.450;2022-08-05T14:02:03;1999.90;;;999.90;;
69835;SDS011;57132;51.972;4.450;2022-08-05T14:04:31;1999.90;;;999.90;;
69835;SDS011;57132;51.972;4.450;2022-08-05T14:07:18;1999.90;;;999.90;;
69835;SDS011;57132;51.972;4.450;2022-08-05T14:09:45;1999.90;;;999.90;;
69835;SDS011;57132;51.972;4.450;2022-08-05T14:12:10;1999.90;;;999.90;;
69835;SDS011;57132;51.972;4.450;2022-08-05T14:14:36;1999.90;;;999.90;;
69835;SDS011;57132;51.972;4.450;2022-08-05T14:17:01;1999.90;;;999.90;;
69835;SDS011;57132;51.972;4.450;2022-08-05T14:19:28;1999.90;;;999.90;;
69835;SDS011;57132;51.972;4.450;2022-08-05T14:21:53;1999.90;;;999.90;;
69835;SDS011;57132;51.972;4.450;2022-08-05T14:24:18;1999.90;;;999.90;;
69835;SDS011;57132;51.972;4.450;2022-08-05T14:26:44;1999.90;;;999.90;;
69835;SDS011;57132;51.972;4.450;2022-08-05T14:29:09;1999.90;;;999.90;;
69835;SDS011;57132;51.972;4.450;2022-08-05T14:31:35;1999.90;;;999.90;;
69835;SDS011;57132;51.972;4.450;2022-08-05T14:34:00;1999.90;;;999.90;;
69835;SDS011;57132;51.972;4.450;2022-08-05T14:36:26;1999.90;;;999.90;;
69835;SDS011;57132;51.972;4.450;2022-08-05T14:38:51;1999.90;;;999.90;;
69835;SDS011;57132;51.972;4.450;2022-08-05T14:41:16;1999.90;;;999.90;;
69835;SDS011;57132;51.972;4.450;2022-08-05T14:43:42;1999.90;;;999.90;;
69835;SDS011;57132;51.972;4.450;2022-08-05T14:46:07;1999.90;;;999.90;;